sensor_id;sensor_type;location;lat;lon;timestamp;temperature;humidity
67899;DHT22;54699;51.796;10.956;2022-10-24T00:01:00;21.90;56.20
67899;DHT22;54699;51.796;10.956;2022-10-24T00:03:27;21.90;56.40
67899;DHT22;54699;51.796;10.956;2022-10-24T00:05:54;21.90;56.40
67899;DHT22;54699;51.796;10.956;2022-10-24T00:08:21;21.90;56.30
67899;DHT22;54699;51.796;10.956;2022-10-24T00:10:48;21.90;56.30
67899;DHT22;54699;51.796;10.956;2022-10-24T00:13:15;21.90;56.30
67899;DHT22;54699;51.796;10.956;2022-10-24T00:15:43;21.90;56.40
67899;DHT22;54699;51.796;10.956;2022-10-24T00:18:12;21.90;56.40
67899;DHT22;54699;51.796;10.956;2022-10-24T00:20:39;21.90;56.40
67899;DHT22;54699;51.796;10.956;2022-10-24T00:23:06;21.90;56.40
67899;DHT22;54699;51.796;10.956;2022-10-24T00:25:34;21.90;56.30
67899;DHT22;54699;51.796;10.956;2022-10-24T00:28:01;21.90;56.30
67899;DHT22;54699;51.796;10.956;2022-10-24T00:30:27;21.90;56.40
67899;DHT22;54699;51.796;10.956;2022-10-24T00:32:54;21.90;56.40
67899;DHT22;54699;51.796;10.956;2022-10-24T00:35:23;21.90;56.40
67899;DHT22;54699;51.796;10.956;2022-10-24T00:37:49;21.90;56.50
67899;DHT22;54699;51.796;10.956;2022-10-24T00:40:17;21.80;56.40
67899;DHT22;54699;51.796;10.956;2022-10-24T00:42:46;21.90;56.50
67899;DHT22;54699;51.796;10.956;2022-10-24T00:48:18;21.90;56.50
67899;DHT22;54699;51.796;10.956;2022-10-24T00:50:50;21.90;56.50
67899;DHT22;54699;51.796;10.956;2022-10-24T00:53:19;21.90;56.50
67899;DHT22;54699;51.796;10.956;2022-10-24T00:55:47;21.80;56.40
67899;DHT22;54699;51.796;10.956;2022-10-24T00:58:17;21.80;57.50
67899;DHT22;54699;51.796;10.956;2022-10-24T01:00:46;21.80;56.50
67899;DHT22;54699;51.796;10.956;2022-10-24T01:03:14;21.80;56.70
67899;DHT22;54699;51.796;10.956;2022-10-24T01:05:43;21.90;56.60
67899;DHT22;54699;51.796;10.956;2022-10-24T01:08:25;21.80;56.70
67899;DHT22;54699;51.796;10.956;2022-10-24T01:10:58;21.80;56.70
67899;DHT22;54699;51.796;10.956;2022-10-24T01:13:32;21.80;56.60
67899;DHT22;54699;51.796;10.956;2022-10-24T01:16:09;21.80;56.60
67899;DHT22;54699;51.796;10.956;2022-10-24T01:18:41;21.80;56.70
67899;DHT22;54699;51.796;10.956;2022-10-24T01:21:17;21.80;56.70
67899;DHT22;54699;51.796;10.956;2022-10-24T01:24:03;21.80;56.60
67899;DHT22;54699;51.796;10.956;2022-10-24T01:29:48;21.80;56.80
67899;DHT22;54699;51.796;10.956;2022-10-24T01:32:28;21.80;56.70
67899;DHT22;54699;51.796;10.956;2022-10-24T01:35:02;21.80;56.70
67899;DHT22;54699;51.796;10.956;2022-10-24T01:37:36;21.80;56.80
67899;DHT22;54699;51.796;10.956;2022-10-24T01:40:09;21.80;56.80
67899;DHT22;54699;51.796;10.956;2022-10-24T01:42:41;21.80;56.90
67899;DHT22;54699;51.796;10.956;2022-10-24T01:45:12;21.80;56.80
67899;DHT22;54699;51.796;10.956;2022-10-24T01:47:45;21.80;56.80
67899;DHT22;54699;51.796;10.956;2022-10-24T01:50:15;21.80;56.90
67899;DHT22;54699;51.796;10.956;2022-10-24T01:52:45;21.80;56.80
67899;DHT22;54699;51.796;10.956;2022-10-24T01:55:13;21.80;56.90
67899;DHT22;54699;51.796;10.956;2022-10-24T01:57:40;21.80;56.90
67899;DHT22;54699;51.796;10.956;2022-10-24T02:00:08;21.80;56.90
67899;DHT22;54699;51.796;10.956;2022-10-24T02:02:42;21.80;56.90
67899;DHT22;54699;51.796;10.956;2022-10-24T02:05:11;21.80;57.40
67899;DHT22;54699;51.796;10.956;2022-10-24T02:07:44;21.80;57.10
67899;DHT22;54699;51.796;10.956;2022-10-24T02:10:15;21.80;57.00
67899;DHT22;54699;51.796;10.956;2022-10-24T02:12:45;21.80;57.10
67899;DHT22;54699;51.796;10.956;2022-10-24T02:15:18;21.80;56.90
67899;DHT22;54699;51.796;10.956;2022-10-24T02:17:49;21.80;57.00
67899;DHT22;54699;51.796;10.956;2022-10-24T02:20:16;21.80;57.10
67899;DHT22;54699;51.796;10.956;2022-10-24T02:22:44;21.80;57.00
67899;DHT22;54699;51.796;10.956;2022-10-24T02:25:16;21.80;57.10
67899;DHT22;54699;51.796;10.956;2022-10-24T02:27:48;21.80;57.00
67899;DHT22;54699;51.796;10.956;2022-10-24T02:30:20;21.80;57.10
67899;DHT22;54699;51.796;10.956;2022-10-24T02:32:50;21.80;57.10
67899;DHT22;54699;51.796;10.956;2022-10-24T02:35:22;21.70;57.10
67899;DHT22;54699;51.796;10.956;2022-10-24T02:37:52;21.80;57.00
67899;DHT22;54699;51.796;10.956;2022-10-24T02:40:22;21.80;57.10
67899;DHT22;54699;51.796;10.956;2022-10-24T02:42:50;21.80;57.10
67899;DHT22;54699;51.796;10.956;2022-10-24T02:45:21;21.80;57.20
67899;DHT22;54699;51.796;10.956;2022-10-24T02:47:49;21.70;57.10
67899;DHT22;54699;51.796;10.956;2022-10-24T02:50:22;21.80;57.10
67899;DHT22;54699;51.796;10.956;2022-10-24T02:52:49;21.70;57.10
67899;DHT22;54699;51.796;10.956;2022-10-24T02:55:15;21.70;57.10
67899;DHT22;54699;51.796;10.956;2022-10-24T02:57:42;21.80;57.10
67899;DHT22;54699;51.796;10.956;2022-10-24T03:00:09;21.70;57.10
67899;DHT22;54699;51.796;10.956;2022-10-24T03:02:38;21.70;57.10
67899;DHT22;54699;51.796;10.956;2022-10-24T03:05:05;21.70;57.10
67899;DHT22;54699;51.796;10.956;2022-10-24T03:07:32;21.70;57.10
67899;DHT22;54699;51.796;10.956;2022-10-24T03:09:59;21.70;57.10
67899;DHT22;54699;51.796;10.956;2022-10-24T03:12:26;21.70;57.10
67899;DHT22;54699;51.796;10.956;2022-10-24T03:14:53;21.70;57.10
67899;DHT22;54699;51.796;10.956;2022-10-24T03:17:19;21.70;57.10
67899;DHT22;54699;51.796;10.956;2022-10-24T03:19:48;21.70;57.00
67899;DHT22;54699;51.796;10.956;2022-10-24T03:22:15;21.70;57.10
67899;DHT22;54699;51.796;10.956;2022-10-24T03:24:42;21.70;57.10
67899;DHT22;54699;51.796;10.956;2022-10-24T03:27:14;21.70;57.10
67899;DHT22;54699;51.796;10.956;2022-10-24T03:29:44;21.70;57.00
67899;DHT22;54699;51.796;10.956;2022-10-24T03:32:11;21.70;57.10
67899;DHT22;54699;51.796;10.956;2022-10-24T03:34:39;21.70;57.00
67899;DHT22;54699;51.796;10.956;2022-10-24T03:37:07;21.70;57.00
67899;DHT22;54699;51.796;10.956;2022-10-24T03:39:34;21.70;57.10
67899;DHT22;54699;51.796;10.956;2022-10-24T03:42:00;21.70;57.10
67899;DHT22;54699;51.796;10.956;2022-10-24T03:44:27;21.70;57.10
67899;DHT22;54699;51.796;10.956;2022-10-24T03:46:54;21.70;57.10
67899;DHT22;54699;51.796;10.956;2022-10-24T03:49:21;21.70;57.00
67899;DHT22;54699;51.796;10.956;2022-10-24T03:51:47;21.70;57.00
67899;DHT22;54699;51.796;10.956;2022-10-24T03:54:15;21.70;57.20
67899;DHT22;54699;51.796;10.956;2022-10-24T03:56:43;21.70;57.10
67899;DHT22;54699;51.796;10.956;2022-10-24T03:59:12;21.60;57.10
67899;DHT22;54699;51.796;10.956;2022-10-24T04:01:38;21.70;57.10
67899;DHT22;54699;51.796;10.956;2022-10-24T04:04:05;21.70;57.10
67899;DHT22;54699;51.796;10.956;2022-10-24T04:06:32;21.70;57.10
67899;DHT22;54699;51.796;10.956;2022-10-24T04:08:59;21.70;57.10
67899;DHT22;54699;51.796;10.956;2022-10-24T04:11:27;21.70;57.00
67899;DHT22;54699;51.796;10.956;2022-10-24T04:13:54;21.70;57.10
67899;DHT22;54699;51.796;10.956;2022-10-24T04:16:21;21.70;57.00
67899;DHT22;54699;51.796;10.956;2022-10-24T04:18:48;21.70;57.00
67899;DHT22;54699;51.796;10.956;2022-10-24T04:21:15;21.70;56.90
67899;DHT22;54699;51.796;10.956;2022-10-24T04:23:43;21.70;57.10
67899;DHT22;54699;51.796;10.956;2022-10-24T04:26:10;21.70;57.00
67899;DHT22;54699;51.796;10.956;2022-10-24T04:28:40;21.70;57.00
67899;DHT22;54699;51.796;10.956;2022-10-24T04:31:07;21.70;57.00
67899;DHT22;54699;51.796;10.956;2022-10-24T04:33:33;21.70;56.90
67899;DHT22;54699;51.796;10.956;2022-10-24T04:36:01;21.70;57.00
67899;DHT22;54699;51.796;10.956;2022-10-24T04:38:28;21.70;57.00
67899;DHT22;54699;51.796;10.956;2022-10-24T04:40:55;21.70;57.10
67899;DHT22;54699;51.796;10.956;2022-10-24T04:43:22;21.70;56.90
67899;DHT22;54699;51.796;10.956;2022-10-24T04:45:51;21.70;56.90
67899;DHT22;54699;51.796;10.956;2022-10-24T04:48:18;21.70;56.90
67899;DHT22;54699;51.796;10.956;2022-10-24T04:50:45;21.70;57.00
67899;DHT22;54699;51.796;10.956;2022-10-24T04:53:13;21.70;56.90
67899;DHT22;54699;51.796;10.956;2022-10-24T04:55:40;21.70;56.90
67899;DHT22;54699;51.796;10.956;2022-10-24T04:58:07;21.70;56.80
67899;DHT22;54699;51.796;10.956;2022-10-24T05:00:34;21.70;56.80
67899;DHT22;54699;51.796;10.956;2022-10-24T05:03:02;21.80;56.70
67899;DHT22;54699;51.796;10.956;2022-10-24T05:05:29;21.80;56.60
67899;DHT22;54699;51.796;10.956;2022-10-24T05:07:56;21.80;56.50
67899;DHT22;54699;51.796;10.956;2022-10-24T05:10:22;21.90;56.40
67899;DHT22;54699;51.796;10.956;2022-10-24T05:12:49;21.90;56.20
67899;DHT22;54699;51.796;10.956;2022-10-24T05:15:16;21.90;56.20
67899;DHT22;54699;51.796;10.956;2022-10-24T05:17:43;21.90;56.10
67899;DHT22;54699;51.796;10.956;2022-10-24T05:20:11;22.00;56.00
67899;DHT22;54699;51.796;10.956;2022-10-24T05:22:38;22.00;55.90
67899;DHT22;54699;51.796;10.956;2022-10-24T05:25:05;22.00;55.90
67899;DHT22;54699;51.796;10.956;2022-10-24T05:27:33;22.10;55.80
67899;DHT22;54699;51.796;10.956;2022-10-24T05:30:00;22.10;55.80
67899;DHT22;54699;51.796;10.956;2022-10-24T05:32:27;22.10;55.60
67899;DHT22;54699;51.796;10.956;2022-10-24T05:34:54;22.10;55.60
67899;DHT22;54699;51.796;10.956;2022-10-24T05:37:22;22.10;55.60
67899;DHT22;54699;51.796;10.956;2022-10-24T05:39:49;22.20;55.50
67899;DHT22;54699;51.796;10.956;2022-10-24T05:42:16;22.20;55.60
67899;DHT22;54699;51.796;10.956;2022-10-24T05:44:43;22.20;55.40
67899;DHT22;54699;51.796;10.956;2022-10-24T05:47:10;22.20;55.40
67899;DHT22;54699;51.796;10.956;2022-10-24T05:49:36;22.20;55.30
67899;DHT22;54699;51.796;10.956;2022-10-24T05:52:03;22.20;55.30
67899;DHT22;54699;51.796;10.956;2022-10-24T05:54:32;22.20;55.20
67899;DHT22;54699;51.796;10.956;2022-10-24T05:56:59;22.20;55.20
67899;DHT22;54699;51.796;10.956;2022-10-24T05:59:25;22.20;55.20
67899;DHT22;54699;51.796;10.956;2022-10-24T06:01:52;22.20;55.20
67899;DHT22;54699;51.796;10.956;2022-10-24T06:04:19;22.20;55.00
67899;DHT22;54699;51.796;10.956;2022-10-24T06:06:46;22.20;55.00
67899;DHT22;54699;51.796;10.956;2022-10-24T06:09:13;22.20;55.10
67899;DHT22;54699;51.796;10.956;2022-10-24T06:11:41;22.30;55.00
67899;DHT22;54699;51.796;10.956;2022-10-24T06:14:08;22.30;55.00
67899;DHT22;54699;51.796;10.956;2022-10-24T06:16:34;22.30;55.00
67899;DHT22;54699;51.796;10.956;2022-10-24T06:19:01;22.30;55.00
67899;DHT22;54699;51.796;10.956;2022-10-24T06:21:28;22.30;54.90
67899;DHT22;54699;51.796;10.956;2022-10-24T06:23:55;22.30;54.90
67899;DHT22;54699;51.796;10.956;2022-10-24T06:26:22;22.30;55.00
67899;DHT22;54699;51.796;10.956;2022-10-24T06:28:50;22.30;55.00
67899;DHT22;54699;51.796;10.956;2022-10-24T06:31:18;22.30;54.80
67899;DHT22;54699;51.796;10.956;2022-10-24T06:33:45;22.30;54.90
67899;DHT22;54699;51.796;10.956;2022-10-24T06:36:12;22.30;54.90
67899;DHT22;54699;51.796;10.956;2022-10-24T06:38:39;22.30;54.90
67899;DHT22;54699;51.796;10.956;2022-10-24T06:41:06;22.30;54.80
67899;DHT22;54699;51.796;10.956;2022-10-24T06:43:34;22.30;54.80
67899;DHT22;54699;51.796;10.956;2022-10-24T06:46:05;22.30;54.80
67899;DHT22;54699;51.796;10.956;2022-10-24T06:48:33;22.30;54.80
67899;DHT22;54699;51.796;10.956;2022-10-24T06:51:00;22.30;54.80
67899;DHT22;54699;51.796;10.956;2022-10-24T06:53:26;22.30;54.70
67899;DHT22;54699;51.796;10.956;2022-10-24T06:55:53;22.30;54.90
67899;DHT22;54699;51.796;10.956;2022-10-24T06:58:20;22.30;54.80
67899;DHT22;54699;51.796;10.956;2022-10-24T07:00:46;22.30;54.80
67899;DHT22;54699;51.796;10.956;2022-10-24T07:03:15;22.30;54.70
67899;DHT22;54699;51.796;10.956;2022-10-24T07:05:42;22.30;55.70
67899;DHT22;54699;51.796;10.956;2022-10-24T07:08:08;22.30;54.80
67899;DHT22;54699;51.796;10.956;2022-10-24T07:10:36;22.30;54.70
67899;DHT22;54699;51.796;10.956;2022-10-24T07:13:03;22.40;54.90
67899;DHT22;54699;51.796;10.956;2022-10-24T07:15:29;22.30;54.80
67899;DHT22;54699;51.796;10.956;2022-10-24T07:17:56;22.40;54.80
67899;DHT22;54699;51.796;10.956;2022-10-24T07:20:24;22.40;54.80
67899;DHT22;54699;51.796;10.956;2022-10-24T07:22:51;22.40;54.80
67899;DHT22;54699;51.796;10.956;2022-10-24T07:25:18;22.40;54.80
67899;DHT22;54699;51.796;10.956;2022-10-24T07:27:45;22.40;54.80
67899;DHT22;54699;51.796;10.956;2022-10-24T07:30:14;22.40;54.80
67899;DHT22;54699;51.796;10.956;2022-10-24T07:32:42;22.40;54.80
67899;DHT22;54699;51.796;10.956;2022-10-24T07:35:10;22.40;54.80
67899;DHT22;54699;51.796;10.956;2022-10-24T07:37:38;22.40;54.80
67899;DHT22;54699;51.796;10.956;2022-10-24T07:40:06;22.40;54.70
67899;DHT22;54699;51.796;10.956;2022-10-24T07:42:33;22.40;54.80
67899;DHT22;54699;51.796;10.956;2022-10-24T07:45:00;22.40;55.70
67899;DHT22;54699;51.796;10.956;2022-10-24T07:47:27;22.40;55.00
67899;DHT22;54699;51.796;10.956;2022-10-24T07:49:54;22.40;54.90
67899;DHT22;54699;51.796;10.956;2022-10-24T07:52:21;22.40;54.80
67899;DHT22;54699;51.796;10.956;2022-10-24T07:54:51;22.40;54.90
67899;DHT22;54699;51.796;10.956;2022-10-24T07:57:19;22.40;54.90
67899;DHT22;54699;51.796;10.956;2022-10-24T07:59:46;22.40;54.80
67899;DHT22;54699;51.796;10.956;2022-10-24T08:02:13;22.40;54.90
67899;DHT22;54699;51.796;10.956;2022-10-24T08:04:41;22.40;54.90
67899;DHT22;54699;51.796;10.956;2022-10-24T08:07:08;22.40;54.90
67899;DHT22;54699;51.796;10.956;2022-10-24T08:09:37;22.40;55.00
67899;DHT22;54699;51.796;10.956;2022-10-24T08:12:05;22.40;55.10
67899;DHT22;54699;51.796;10.956;2022-10-24T08:14:32;22.40;55.00
67899;DHT22;54699;51.796;10.956;2022-10-24T08:16:59;22.40;55.00
67899;DHT22;54699;51.796;10.956;2022-10-24T08:19:26;22.40;55.00
67899;DHT22;54699;51.796;10.956;2022-10-24T08:21:53;22.40;55.10
67899;DHT22;54699;51.796;10.956;2022-10-24T08:24:19;22.40;55.10
67899;DHT22;54699;51.796;10.956;2022-10-24T08:26:46;22.40;55.10
67899;DHT22;54699;51.796;10.956;2022-10-24T08:29:14;22.40;55.20
67899;DHT22;54699;51.796;10.956;2022-10-24T08:31:47;22.40;55.30
67899;DHT22;54699;51.796;10.956;2022-10-24T08:34:15;22.40;55.30
67899;DHT22;54699;51.796;10.956;2022-10-24T08:36:42;22.40;55.20
67899;DHT22;54699;51.796;10.956;2022-10-24T08:39:09;22.40;55.10
67899;DHT22;54699;51.796;10.956;2022-10-24T08:41:37;22.50;55.30
67899;DHT22;54699;51.796;10.956;2022-10-24T08:44:11;22.40;55.30
67899;DHT22;54699;51.796;10.956;2022-10-24T08:46:45;22.40;55.20
67899;DHT22;54699;51.796;10.956;2022-10-24T08:49:22;22.40;55.20
67899;DHT22;54699;51.796;10.956;2022-10-24T08:51:57;22.40;55.20
67899;DHT22;54699;51.796;10.956;2022-10-24T08:54:27;22.40;55.30
67899;DHT22;54699;51.796;10.956;2022-10-24T08:56:58;22.40;55.30
67899;DHT22;54699;51.796;10.956;2022-10-24T08:59:28;22.30;55.70
67899;DHT22;54699;51.796;10.956;2022-10-24T09:01:59;22.50;55.70
67899;DHT22;54699;51.796;10.956;2022-10-24T09:04:30;22.40;55.60
67899;DHT22;54699;51.796;10.956;2022-10-24T09:07:01;22.40;55.60
67899;DHT22;54699;51.796;10.956;2022-10-24T09:09:28;22.50;55.60
67899;DHT22;54699;51.796;10.956;2022-10-24T09:12:02;22.50;55.40
67899;DHT22;54699;51.796;10.956;2022-10-24T09:14:37;22.50;55.50
67899;DHT22;54699;51.796;10.956;2022-10-24T09:17:09;22.40;55.50
67899;DHT22;54699;51.796;10.956;2022-10-24T09:19:38;22.50;55.50
67899;DHT22;54699;51.796;10.956;2022-10-24T09:22:05;22.50;55.40
67899;DHT22;54699;51.796;10.956;2022-10-24T09:24:38;22.50;55.40
67899;DHT22;54699;51.796;10.956;2022-10-24T09:27:10;22.50;55.60
67899;DHT22;54699;51.796;10.956;2022-10-24T09:29:42;22.40;55.60
67899;DHT22;54699;51.796;10.956;2022-10-24T09:32:12;22.40;55.90
67899;DHT22;54699;51.796;10.956;2022-10-24T09:34:41;22.40;56.00
67899;DHT22;54699;51.796;10.956;2022-10-24T09:40:04;22.40;56.30
67899;DHT22;54699;51.796;10.956;2022-10-24T09:42:33;22.50;56.50
67899;DHT22;54699;51.796;10.956;2022-10-24T09:45:17;22.40;56.30
67899;DHT22;54699;51.796;10.956;2022-10-24T09:47:59;22.40;56.30
67899;DHT22;54699;51.796;10.956;2022-10-24T09:50:29;22.40;56.50
67899;DHT22;54699;51.796;10.956;2022-10-24T09:52:58;22.50;56.60
67899;DHT22;54699;51.796;10.956;2022-10-24T09:55:27;22.50;56.40
67899;DHT22;54699;51.796;10.956;2022-10-24T09:57:56;22.50;56.60
67899;DHT22;54699;51.796;10.956;2022-10-24T10:00:30;22.40;56.60
67899;DHT22;54699;51.796;10.956;2022-10-24T10:02:59;22.40;56.90
67899;DHT22;54699;51.796;10.956;2022-10-24T10:05:29;22.30;56.80
67899;DHT22;54699;51.796;10.956;2022-10-24T10:08:08;22.30;55.40
67899;DHT22;54699;51.796;10.956;2022-10-24T10:10:38;22.30;56.80
67899;DHT22;54699;51.796;10.956;2022-10-24T10:13:14;22.20;55.50
67899;DHT22;54699;51.796;10.956;2022-10-24T10:15:49;22.30;57.00
67899;DHT22;54699;51.796;10.956;2022-10-24T10:21:10;22.30;54.80
67899;DHT22;54699;51.796;10.956;2022-10-24T10:23:40;22.30;54.70
67899;DHT22;54699;51.796;10.956;2022-10-24T10:26:13;22.30;55.50
67899;DHT22;54699;51.796;10.956;2022-10-24T10:28:45;22.30;54.60
67899;DHT22;54699;51.796;10.956;2022-10-24T10:31:18;22.30;54.50
67899;DHT22;54699;51.796;10.956;2022-10-24T10:33:53;22.30;54.40
67899;DHT22;54699;51.796;10.956;2022-10-24T10:36:33;22.40;54.60
67899;DHT22;54699;51.796;10.956;2022-10-24T10:39:18;22.60;53.90
67899;DHT22;54699;51.796;10.956;2022-10-24T10:41:54;22.50;54.30
67899;DHT22;54699;51.796;10.956;2022-10-24T10:44:32;22.50;53.90
67899;DHT22;54699;51.796;10.956;2022-10-24T10:47:11;22.50;54.40
67899;DHT22;54699;51.796;10.956;2022-10-24T10:49:52;22.50;54.00
67899;DHT22;54699;51.796;10.956;2022-10-24T10:52:23;22.50;54.40
67899;DHT22;54699;51.796;10.956;2022-10-24T10:55:11;22.50;54.10
67899;DHT22;54699;51.796;10.956;2022-10-24T10:57:48;22.60;53.90
67899;DHT22;54699;51.796;10.956;2022-10-24T11:00:20;22.60;54.00
67899;DHT22;54699;51.796;10.956;2022-10-24T11:03:03;22.60;53.40
67899;DHT22;54699;51.796;10.956;2022-10-24T11:05:44;22.60;53.70
67899;DHT22;54699;51.796;10.956;2022-10-24T11:08:22;22.70;53.40
67899;DHT22;54699;51.796;10.956;2022-10-24T11:10:58;22.70;53.40
67899;DHT22;54699;51.796;10.956;2022-10-24T11:13:30;22.80;53.30
67899;DHT22;54699;51.796;10.956;2022-10-24T11:16:03;22.80;53.20
67899;DHT22;54699;51.796;10.956;2022-10-24T11:18:35;22.80;52.80
67899;DHT22;54699;51.796;10.956;2022-10-24T11:21:05;22.80;52.90
67899;DHT22;54699;51.796;10.956;2022-10-24T11:23:34;22.80;52.90
67899;DHT22;54699;51.796;10.956;2022-10-24T11:26:06;22.80;52.90
67899;DHT22;54699;51.796;10.956;2022-10-24T11:28:37;22.80;52.90
67899;DHT22;54699;51.796;10.956;2022-10-24T11:31:10;22.80;52.90
67899;DHT22;54699;51.796;10.956;2022-10-24T11:33:43;22.90;52.80
67899;DHT22;54699;51.796;10.956;2022-10-24T11:36:13;22.90;52.90
67899;DHT22;54699;51.796;10.956;2022-10-24T11:38:46;22.90;52.80
67899;DHT22;54699;51.796;10.956;2022-10-24T11:41:21;22.90;52.60
67899;DHT22;54699;51.796;10.956;2022-10-24T11:43:55;22.90;52.70
67899;DHT22;54699;51.796;10.956;2022-10-24T11:46:29;23.00;52.60
67899;DHT22;54699;51.796;10.956;2022-10-24T11:49:04;23.00;52.90
67899;DHT22;54699;51.796;10.956;2022-10-24T11:51:39;23.00;52.70
67899;DHT22;54699;51.796;10.956;2022-10-24T11:54:10;23.00;52.80
67899;DHT22;54699;51.796;10.956;2022-10-24T11:56:43;22.90;52.80
67899;DHT22;54699;51.796;10.956;2022-10-24T11:59:14;23.00;52.80
67899;DHT22;54699;51.796;10.956;2022-10-24T12:08:14;23.00;52.80
67899;DHT22;54699;51.796;10.956;2022-10-24T12:10:57;23.00;53.20
67899;DHT22;54699;51.796;10.956;2022-10-24T12:13:49;23.10;52.90
67899;DHT22;54699;51.796;10.956;2022-10-24T12:16:34;23.20;53.10
67899;DHT22;54699;51.796;10.956;2022-10-24T12:19:10;23.20;55.10
67899;DHT22;54699;51.796;10.956;2022-10-24T12:21:40;23.30;53.10
67899;DHT22;54699;51.796;10.956;2022-10-24T12:24:20;23.30;52.60
67899;DHT22;54699;51.796;10.956;2022-10-24T12:26:55;23.40;52.40
67899;DHT22;54699;51.796;10.956;2022-10-24T12:29:25;23.40;52.40
67899;DHT22;54699;51.796;10.956;2022-10-24T12:31:52;23.40;52.10
67899;DHT22;54699;51.796;10.956;2022-10-24T12:37:08;23.50;52.10
67899;DHT22;54699;51.796;10.956;2022-10-24T12:39:41;23.60;52.20
67899;DHT22;54699;51.796;10.956;2022-10-24T12:42:12;23.60;52.00
67899;DHT22;54699;51.796;10.956;2022-10-24T12:44:42;23.60;52.20
67899;DHT22;54699;51.796;10.956;2022-10-24T12:47:30;23.70;52.00
67899;DHT22;54699;51.796;10.956;2022-10-24T12:53:02;23.70;52.40
67899;DHT22;54699;51.796;10.956;2022-10-24T12:58:32;23.70;51.60
67899;DHT22;54699;51.796;10.956;2022-10-24T13:01:01;23.60;52.00
67899;DHT22;54699;51.796;10.956;2022-10-24T13:03:35;23.60;52.10
67899;DHT22;54699;51.796;10.956;2022-10-24T13:06:25;23.50;52.50
67899;DHT22;54699;51.796;10.956;2022-10-24T13:09:01;23.40;52.30
67899;DHT22;54699;51.796;10.956;2022-10-24T13:11:41;23.40;52.70
67899;DHT22;54699;51.796;10.956;2022-10-24T13:17:25;23.40;52.50
67899;DHT22;54699;51.796;10.956;2022-10-24T13:20:02;23.40;53.20
67899;DHT22;54699;51.796;10.956;2022-10-24T13:22:32;23.40;53.10
67899;DHT22;54699;51.796;10.956;2022-10-24T13:25:16;23.30;53.50
67899;DHT22;54699;51.796;10.956;2022-10-24T13:27:45;23.30;53.60
67899;DHT22;54699;51.796;10.956;2022-10-24T13:30:50;23.30;53.80
67899;DHT22;54699;51.796;10.956;2022-10-24T13:33:47;23.20;53.80
67899;DHT22;54699;51.796;10.956;2022-10-24T13:36:15;23.30;54.00
67899;DHT22;54699;51.796;10.956;2022-10-24T13:38:48;23.20;53.90
67899;DHT22;54699;51.796;10.956;2022-10-24T13:41:19;23.20;54.00
67899;DHT22;54699;51.796;10.956;2022-10-24T13:43:51;23.20;53.90
67899;DHT22;54699;51.796;10.956;2022-10-24T13:46:25;23.20;53.80
67899;DHT22;54699;51.796;10.956;2022-10-24T13:48:57;23.20;54.10
67899;DHT22;54699;51.796;10.956;2022-10-24T13:51:27;23.20;54.10
67899;DHT22;54699;51.796;10.956;2022-10-24T13:54:02;23.20;53.70
67899;DHT22;54699;51.796;10.956;2022-10-24T13:56:35;23.20;53.90
67899;DHT22;54699;51.796;10.956;2022-10-24T14:01:55;23.20;53.80
67899;DHT22;54699;51.796;10.956;2022-10-24T14:04:23;23.20;53.70
67899;DHT22;54699;51.796;10.956;2022-10-24T14:06:50;23.20;54.00
67899;DHT22;54699;51.796;10.956;2022-10-24T14:09:17;23.20;53.80
67899;DHT22;54699;51.796;10.956;2022-10-24T14:11:44;23.10;53.80
67899;DHT22;54699;51.796;10.956;2022-10-24T14:14:18;23.10;54.20
67899;DHT22;54699;51.796;10.956;2022-10-24T14:17:04;23.10;54.30
67899;DHT22;54699;51.796;10.956;2022-10-24T14:19:33;23.00;54.40
67899;DHT22;54699;51.796;10.956;2022-10-24T14:22:15;23.00;54.30
67899;DHT22;54699;51.796;10.956;2022-10-24T14:24:44;23.00;54.10
67899;DHT22;54699;51.796;10.956;2022-10-24T14:27:12;23.00;53.60
67899;DHT22;54699;51.796;10.956;2022-10-24T14:29:48;23.00;54.20
67899;DHT22;54699;51.796;10.956;2022-10-24T14:32:18;23.00;53.50
67899;DHT22;54699;51.796;10.956;2022-10-24T14:34:45;23.10;53.40
67899;DHT22;54699;51.796;10.956;2022-10-24T14:37:14;23.00;53.70
67899;DHT22;54699;51.796;10.956;2022-10-24T14:39:51;23.00;54.30
67899;DHT22;54699;51.796;10.956;2022-10-24T14:42:18;23.00;54.30
67899;DHT22;54699;51.796;10.956;2022-10-24T14:44:46;23.00;54.40
67899;DHT22;54699;51.796;10.956;2022-10-24T14:47:22;22.90;54.60
67899;DHT22;54699;51.796;10.956;2022-10-24T14:49:50;22.90;54.40
67899;DHT22;54699;51.796;10.956;2022-10-24T14:52:19;22.90;54.70
67899;DHT22;54699;51.796;10.956;2022-10-24T14:54:51;22.90;55.30
67899;DHT22;54699;51.796;10.956;2022-10-24T14:57:25;22.90;54.60
67899;DHT22;54699;51.796;10.956;2022-10-24T14:59:54;22.90;54.00
67899;DHT22;54699;51.796;10.956;2022-10-24T15:02:25;22.90;53.80
67899;DHT22;54699;51.796;10.956;2022-10-24T15:07:40;22.90;54.50
67899;DHT22;54699;51.796;10.956;2022-10-24T15:10:23;22.90;54.60
67899;DHT22;54699;51.796;10.956;2022-10-24T15:12:58;22.80;54.60
67899;DHT22;54699;51.796;10.956;2022-10-24T15:15:28;22.80;54.50
67899;DHT22;54699;51.796;10.956;2022-10-24T15:17:59;22.80;54.50
67899;DHT22;54699;51.796;10.956;2022-10-24T15:20:33;22.80;54.60
67899;DHT22;54699;51.796;10.956;2022-10-24T15:23:01;22.80;54.80
67899;DHT22;54699;51.796;10.956;2022-10-24T15:25:30;22.80;54.60
67899;DHT22;54699;51.796;10.956;2022-10-24T15:27:59;22.70;54.30
67899;DHT22;54699;51.796;10.956;2022-10-24T15:30:27;22.70;54.70
67899;DHT22;54699;51.796;10.956;2022-10-24T15:32:56;22.70;54.80
67899;DHT22;54699;51.796;10.956;2022-10-24T15:35:26;22.70;54.80
67899;DHT22;54699;51.796;10.956;2022-10-24T15:37:53;22.70;54.80
67899;DHT22;54699;51.796;10.956;2022-10-24T15:40:22;22.70;54.60
67899;DHT22;54699;51.796;10.956;2022-10-24T15:42:51;22.70;54.60
67899;DHT22;54699;51.796;10.956;2022-10-24T15:45:18;22.70;54.60
67899;DHT22;54699;51.796;10.956;2022-10-24T15:47:45;22.70;54.60
67899;DHT22;54699;51.796;10.956;2022-10-24T15:50:14;22.70;54.50
67899;DHT22;54699;51.796;10.956;2022-10-24T15:52:42;22.70;54.10
67899;DHT22;54699;51.796;10.956;2022-10-24T15:55:15;22.60;54.40
67899;DHT22;54699;51.796;10.956;2022-10-24T15:57:45;22.70;54.60
67899;DHT22;54699;51.796;10.956;2022-10-24T16:00:13;22.70;54.60
67899;DHT22;54699;51.796;10.956;2022-10-24T16:02:41;22.60;54.70
67899;DHT22;54699;51.796;10.956;2022-10-24T16:05:12;22.60;54.70
67899;DHT22;54699;51.796;10.956;2022-10-24T16:07:43;22.60;54.60
67899;DHT22;54699;51.796;10.956;2022-10-24T16:10:11;22.60;54.60